Time;durP1;ratioP1;P1;durP2;ratioP2;P2;SDS_P1;SDS_P2;PMS_P1;PMS_P2;Temp;Humidity;BMP_temperature;BMP_pressure;BME280_temperature;BME280_humidity;BME280_pressure;Samples;Min_cycle;Max_cycle;Signal;HPM_P1;HPM_P2
2023/03/29 00:02:28;;;;;;;6.75;4.00;;;;;;;7.62;59.53;100779.75;4991420;28;20037;-85
2023/03/29 00:04:55;;;;;;;7.05;3.30;;;;;;;7.52;59.75;100777.78;4990934;28;20485;-84
2023/03/29 00:07:22;;;;;;;8.38;3.78;;;;;;;7.51;60.76;100770.72;4991192;28;20053;-87
2023/03/29 00:09:48;;;;;;;11.70;3.55;;;;;;;7.54;60.62;100773.19;4991487;28;20026;-86
2023/03/29 00:12:14;;;;;;;9.75;3.58;;;;;;;7.54;60.92;100765.16;4975388;28;20042;-86
2023/03/29 00:14:39;;;;;;;7.93;3.67;;;;;;;7.65;61.43;100781.34;4992726;28;20474;-86
2023/03/29 00:17:05;;;;;;;10.05;4.65;;;;;;;7.73;61.54;100789.75;5003099;28;20050;-84
2023/03/29 00:19:34;;;;;;;8.18;4.10;;;;;;;7.67;61.59;100772.25;5014020;28;20038;-85
2023/03/29 00:22:01;;;;;;;4.93;3.53;;;;;;;7.73;60.98;100786.19;5007840;28;20504;-85
2023/03/29 00:24:26;;;;;;;9.55;3.92;;;;;;;7.69;61.33;100785.53;4991255;28;20032;-85
2023/03/29 00:26:51;;;;;;;6.30;3.17;;;;;;;7.68;61.49;100787.34;4990780;28;20053;-86
2023/03/29 00:29:17;;;;;;;5.43;2.95;;;;;;;7.63;61.07;100777.94;4990715;28;20022;-86
2023/03/29 00:31:52;;;;;;;5.38;3.15;;;;;;;7.59;61.26;100779.94;4987683;28;20081;-82
2023/03/29 00:34:18;;;;;;;6.78;3.90;;;;;;;7.61;61.18;100796.75;4989202;28;20084;-80
2023/03/29 00:36:43;;;;;;;14.18;4.97;;;;;;;7.50;61.65;100790.41;4989446;28;20112;-81
2023/03/29 00:39:09;;;;;;;5.20;3.45;;;;;;;7.48;61.94;100798.53;4989662;28;20490;-80
2023/03/29 00:41:34;;;;;;;5.85;3.78;;;;;;;7.44;62.12;100805.03;4988737;28;20034;-85
2023/03/29 00:44:02;;;;;;;5.43;3.42;;;;;;;7.30;62.57;100794.41;4989594;28;20030;-86
2023/03/29 00:46:30;;;;;;;6.05;4.10;;;;;;;7.17;62.47;100782.78;4989350;28;20049;-87
2023/03/29 00:49:01;;;;;;;6.30;3.42;;;;;;;7.15;63.07;100786.50;4972462;28;20026;-87
2023/03/29 00:51:30;;;;;;;6.88;3.25;;;;;;;7.27;62.85;100807.97;4988187;28;20053;-83
2023/03/29 00:54:00;;;;;;;6.57;3.45;;;;;;;7.20;63.06;100808.44;4956191;28;20113;-88
2023/03/29 00:56:38;;;;;;;5.00;3.35;;;;;;;7.18;63.46;100800.53;4988758;28;20453;-82
2023/03/29 00:59:14;;;;;;;4.65;3.78;;;;;;;7.20;63.43;100808.44;4989212;28;20026;-79
2023/03/29 01:02:22;;;;;;;5.43;4.00;;;;;;;7.19;63.37;100815.63;4988096;28;20034;-79
2023/03/29 01:05:04;;;;;;;5.97;3.40;;;;;;;7.18;63.30;100816.59;4909117;29;20138;-78
2023/03/29 01:07:46;;;;;;;7.30;3.85;;;;;;;7.18;63.19;100815.72;4910238;29;20244;-81
2023/03/29 01:10:20;;;;;;;7.10;3.45;;;;;;;7.20;63.37;100825.38;4892244;29;20861;-84
2023/03/29 01:12:50;;;;;;;10.35;4.07;;;;;;;7.10;63.55;100824.22;4893104;29;20048;-89
2023/03/29 01:15:27;;;;;;;3.50;2.92;;;;;;;6.99;63.58;100802.66;4889316;29;20048;-80
2023/03/29 01:17:54;;;;;;;4.75;3.72;;;;;;;7.07;63.50;100824.41;4916212;29;20052;-80
2023/03/29 01:20:32;;;;;;;5.13;3.90;;;;;;;7.13;63.57;100829.38;4904164;29;20040;-88
2023/03/29 01:23:06;;;;;;;8.50;4.13;;;;;;;7.08;63.48;100834.19;4891500;29;20115;-89
2023/03/29 01:25:55;;;;;;;5.10;3.65;;;;;;;7.11;63.76;100825.97;4875553;29;20105;-81
2023/03/29 01:28:25;;;;;;;4.70;3.65;;;;;;;7.19;63.87;100828.13;4890815;29;20071;-90
2023/03/29 01:30:58;;;;;;;8.98;4.03;;;;;;;7.02;63.31;100805.16;4891288;29;20043;-82
2023/03/29 01:33:30;;;;;;;4.88;3.60;;;;;;;7.12;63.62;100827.69;4872448;29;20189;-81
2023/03/29 01:35:56;;;;;;;;;;;;;;;7.16;64.06;100834.53;4910365;29;20044;-81
2023/03/29 01:38:28;;;;;;;6.93;3.90;;;;;;;7.10;63.75;100832.25;4928815;29;19926;-80
2023/03/29 01:40:53;;;;;;;5.45;4.43;;;;;;;7.13;64.32;100840.94;4912429;29;20039;-88
2023/03/29 01:43:27;;;;;;;12.50;4.35;;;;;;;7.09;64.19;100843.94;4932411;29;20463;-81
2023/03/29 01:46:20;;;;;;;9.35;4.05;;;;;;;6.97;64.53;100850.06;4929128;29;20073;-89
2023/03/29 01:49:18;;;;;;;6.25;3.92;;;;;;;6.92;64.16;100853.00;4970105;28;20414;-84
2023/03/29 01:52:16;;;;;;;6.75;3.80;;;;;;;6.92;64.80;100847.66;4912586;29;20040;-84
2023/03/29 01:55:01;;;;;;;7.43;4.03;;;;;;;6.75;64.10;100847.00;4910543;29;20163;-86
2023/03/29 01:57:28;;;;;;;13.10;4.15;;;;;;;6.76;63.61;100851.41;4911384;29;20088;-85
2023/03/29 01:59:56;;;;;;;6.65;4.35;;;;;;;6.60;63.79;100845.28;4909532;29;20538;-85
2023/03/29 02:02:25;;;;;;;5.65;3.92;;;;;;;6.67;64.25;100851.94;4894067;29;20052;-84
2023/03/29 02:04:53;;;;;;;7.57;4.15;;;;;;;6.70;64.06;100849.06;4910193;29;20024;-84
2023/03/29 02:07:30;;;;;;;9.88;4.35;;;;;;;6.80;63.88;100856.44;4894851;29;20149;-84
2023/03/29 02:09:57;;;;;;;7.18;4.15;;;;;;;6.83;63.06;100853.56;4910767;29;20092;-82
2023/03/29 02:12:23;;;;;;;5.82;3.50;;;;;;;6.86;63.07;100853.38;4917529;29;20029;-82
2023/03/29 02:14:48;;;;;;;11.57;4.03;;;;;;;6.89;63.10;100855.00;4937442;29;20072;-82
2023/03/29 02:17:22;;;;;;;8.20;4.20;;;;;;;6.90;62.68;100859.41;4933248;29;20546;-85
2023/03/29 02:20:13;;;;;;;7.50;3.53;;;;;;;7.01;62.38;100862.25;4913618;29;20074;-84
2023/03/29 02:23:03;;;;;;;7.47;3.85;;;;;;;7.04;61.59;100867.41;4913652;29;20060;-85
2023/03/29 02:25:29;;;;;;;10.85;4.40;;;;;;;6.93;61.27;100845.84;4895996;29;20131;-83
2023/03/29 02:27:55;;;;;;;7.68;3.88;;;;;;;6.99;60.71;100866.84;4923243;29;20059;-84
2023/03/29 02:30:22;;;;;;;5.32;3.45;;;;;;;6.98;60.40;100873.13;4932813;29;20031;-83
2023/03/29 02:33:02;;;;;;;5.75;3.92;;;;;;;6.91;60.31;100863.81;4933128;29;20634;-83
2023/03/29 02:35:33;;;;;;;5.72;4.35;;;;;;;6.77;59.93;100885.16;4933118;29;20047;-84
2023/03/29 02:38:02;;;;;;;11.27;3.75;;;;;;;6.58;59.91;100875.59;4932759;29;20071;-85
2023/03/29 02:40:28;;;;;;;5.97;3.92;;;;;;;6.50;60.10;100890.38;4932930;29;20088;-83
2023/03/29 02:42:56;;;;;;;6.18;4.03;;;;;;;6.46;60.40;100892.38;4934102;29;20052;-82
2023/03/29 02:45:23;;;;;;;9.18;4.15;;;;;;;6.42;60.98;100893.50;4935824;29;20120;-83
2023/03/29 02:47:52;;;;;;;6.57;3.92;;;;;;;6.35;60.47;100888.66;4939215;29;20070;-86
2023/03/29 02:50:19;;;;;;;7.05;4.10;;;;;;;6.28;60.90;100876.59;4899941;29;20412;-82
2023/03/29 02:52:58;;;;;;;7.82;4.35;;;;;;;6.36;60.51;100893.88;4931658;29;20074;-83
2023/03/29 02:55:30;;;;;;;9.75;4.38;;;;;;;6.33;60.18;100891.38;4931452;29;20058;-81
2023/03/29 02:57:56;;;;;;;9.82;4.45;;;;;;;6.36;60.36;100907.22;4930891;29;20039;-85
2023/03/29 03:00:22;;;;;;;15.10;4.82;;;;;;;6.38;60.87;100892.00;4931355;29;20043;-87
2023/03/29 03:02:49;;;;;;;5.65;3.53;;;;;;;6.38;60.14;100902.69;4968038;28;20050;-83
2023/03/29 03:05:16;;;;;;;7.43;3.63;;;;;;;6.35;60.41;100910.88;4997273;28;20580;-82
2023/03/29 03:07:42;;;;;;;5.75;3.95;;;;;;;6.30;60.55;100907.59;4975010;28;20049;-80
2023/03/29 03:10:09;;;;;;;7.07;3.75;;;;;;;6.27;60.26;100917.63;4997363;28;20550;-82
2023/03/29 03:12:36;;;;;;;7.82;4.00;;;;;;;6.26;60.27;100916.75;5009249;28;20041;-79
2023/03/29 03:15:02;;;;;;;8.25;4.28;;;;;;;6.25;60.52;100927.53;5004245;28;20073;-80
2023/03/29 03:17:28;;;;;;;10.20;5.05;;;;;;;6.32;61.22;100929.75;4993485;28;20041;-80
2023/03/29 03:19:54;;;;;;;8.02;5.20;;;;;;;6.16;61.71;100922.72;4974043;28;20035;-79
2023/03/29 03:22:19;;;;;;;7.90;4.70;;;;;;;6.06;62.52;100940.22;4991430;28;20080;-81
2023/03/29 03:24:45;;;;;;;8.85;4.22;;;;;;;6.13;63.01;100934.44;4990601;28;20165;-80
2023/03/29 03:27:10;;;;;;;10.88;4.60;;;;;;;6.12;62.92;100930.03;4956602;28;20050;-81
2023/03/29 03:29:37;;;;;;;11.80;5.40;;;;;;;6.05;62.32;100920.69;4991281;28;20029;-82
2023/03/29 03:32:03;;;;;;;15.75;4.97;;;;;;;5.96;62.54;100937.25;4991420;28;20045;-80
2023/03/29 03:34:28;;;;;;;8.07;4.97;;;;;;;5.92;62.70;100933.00;4973631;28;20026;-81
2023/03/29 03:36:54;;;;;;;14.07;4.72;;;;;;;5.95;62.71;100948.84;4991432;28;20488;-80
2023/03/29 03:39:20;;;;;;;8.63;4.85;;;;;;;5.95;62.65;100947.06;4992032;28;20026;-81
2023/03/29 03:41:45;;;;;;;11.35;5.00;;;;;;;5.72;63.19;100951.94;4991959;28;20025;-81
2023/03/29 03:44:12;;;;;;;11.43;4.82;;;;;;;5.70;63.59;100948.47;4989608;28;20026;-83
2023/03/29 03:46:37;;;;;;;19.40;4.70;;;;;;;5.60;63.79;100942.78;4991030;28;20040;-82
2023/03/29 03:49:03;;;;;;;11.77;5.32;;;;;;;5.72;63.86;100951.94;4990648;28;20026;-80
2023/03/29 03:51:29;;;;;;;10.05;4.47;;;;;;;5.63;63.92;100949.75;4991764;28;20092;-81
2023/03/29 03:53:54;;;;;;;13.32;4.32;;;;;;;5.61;64.25;100954.34;4992047;28;20030;-81
2023/03/29 03:56:20;;;;;;;11.55;4.53;;;;;;;5.48;64.16;100946.16;4973168;28;20034;-81
2023/03/29 03:58:46;;;;;;;8.25;4.88;;;;;;;5.44;64.32;100948.13;4991271;28;20049;-81
2023/03/29 04:01:12;;;;;;;15.77;4.40;;;;;;;5.42;64.59;100955.34;4991307;28;20069;-80
2023/03/29 04:03:37;;;;;;;18.70;5.30;;;;;;;5.45;64.36;100941.84;4957635;28;20058;-80
2023/03/29 04:06:04;;;;;;;17.05;5.80;;;;;;;5.39;64.67;100944.00;4993618;28;20084;-80
2023/03/29 04:08:30;;;;;;;18.83;7.07;;;;;;;5.26;64.56;100953.63;4995331;28;20045;-81
2023/03/29 04:10:57;;;;;;;18.88;5.57;;;;;;;5.26;65.23;100957.13;5001632;28;20030;-79
2023/03/29 04:13:24;;;;;;;14.13;6.43;;;;;;;5.13;65.58;100952.56;4986974;28;20034;-80
2023/03/29 04:15:52;;;;;;;23.75;7.40;;;;;;;5.15;65.89;100964.84;5005954;28;20027;-79
2023/03/29 04:18:19;;;;;;;11.90;6.90;;;;;;;5.21;65.73;100964.53;5012345;28;20041;-80
2023/03/29 04:20:46;;;;;;;20.25;6.03;;;;;;;5.10;66.08;100961.59;4993804;28;20022;-82
2023/03/29 04:23:11;;;;;;;10.65;5.35;;;;;;;5.07;65.96;100953.75;4991274;28;20046;-82
2023/03/29 04:25:37;;;;;;;9.60;5.63;;;;;;;4.93;66.34;100972.25;4956553;28;20049;-80
2023/03/29 04:28:03;;;;;;;9.13;5.10;;;;;;;4.96;66.36;100972.09;4991252;28;20030;-82
2023/03/29 04:30:29;;;;;;;12.85;6.13;;;;;;;4.94;66.53;100971.34;4991118;28;20026;-81
2023/03/29 04:32:55;;;;;;;14.90;5.80;;;;;;;4.89;66.53;100963.56;4991070;28;20041;-81
2023/03/29 04:35:20;;;;;;;11.30;5.55;;;;;;;4.92;66.56;100987.38;4956201;28;20462;-81
2023/03/29 04:37:47;;;;;;;10.45;5.63;;;;;;;4.92;66.66;101002.53;4990939;28;20037;-80
2023/03/29 04:40:13;;;;;;;10.30;5.45;;;;;;;4.83;67.00;100989.69;4990658;28;20120;-80
2023/03/29 04:42:43;;;;;;;12.95;7.20;;;;;;;4.89;67.17;101000.88;4990136;28;20050;-81
2023/03/29 04:45:10;;;;;;;23.02;6.88;;;;;;;4.90;67.11;101001.75;4990537;28;20030;-80
2023/03/29 04:47:38;;;;;;;16.83;6.32;;;;;;;4.89;66.69;100997.38;4989880;28;20216;-79
2023/03/29 04:50:05;;;;;;;12.80;6.45;;;;;;;4.90;66.71;101009.72;4989738;28;20033;-81
2023/03/29 04:52:32;;;;;;;17.60;7.20;;;;;;;4.86;66.60;101002.84;4990042;28;20035;-79
2023/03/29 04:54:58;;;;;;;14.23;6.97;;;;;;;4.86;66.56;101016.19;4956058;28;20045;-81
2023/03/29 04:57:24;;;;;;;19.63;6.93;;;;;;;4.79;66.79;101007.63;4989900;28;20057;-80
2023/03/29 04:59:49;;;;;;;12.38;6.22;;;;;;;4.77;67.15;101025.47;4990204;28;20058;-81
2023/03/29 05:02:15;;;;;;;14.02;6.07;;;;;;;4.81;67.38;101023.53;4990496;28;20030;-80
2023/03/29 05:04:40;;;;;;;11.68;5.95;;;;;;;4.97;67.31;101024.47;4990038;28;20049;-81
2023/03/29 05:07:06;;;;;;;9.10;5.75;;;;;;;4.99;66.83;101022.56;4997585;28;20057;-80
2023/03/29 05:09:31;;;;;;;19.55;6.68;;;;;;;5.09;66.56;101023.84;5001554;28;20046;-80
2023/03/29 05:11:57;;;;;;;11.63;6.60;;;;;;;5.13;66.06;101022.75;4997333;28;20034;-80
2023/03/29 05:14:22;;;;;;;12.75;6.68;;;;;;;5.09;66.17;101034.50;4990402;28;20026;-81
2023/03/29 05:16:48;;;;;;;7.82;5.50;;;;;;;5.11;65.63;101019.28;4990132;28;20054;-80
2023/03/29 05:19:14;;;;;;;8.45;5.53;;;;;;;5.22;65.66;101032.06;4989509;28;20451;-80
2023/03/29 05:21:39;;;;;;;18.50;5.03;;;;;;;5.09;65.98;101037.16;4989992;28;20026;-81
2023/03/29 05:24:05;;;;;;;20.65;7.35;;;;;;;5.29;66.21;101034.28;4990879;28;20057;-81
2023/03/29 05:26:30;;;;;;;10.18;5.82;;;;;;;5.40;65.91;101033.75;4990881;28;20046;-81
2023/03/29 05:28:56;;;;;;;12.75;6.50;;;;;;;5.45;65.46;101042.34;4993948;28;20038;-87
2023/03/29 05:31:22;;;;;;;25.92;7.70;;;;;;;5.50;65.27;101043.81;4991389;28;20148;-83
2023/03/29 05:33:48;;;;;;;16.70;8.80;;;;;;;5.58;64.91;101056.75;4992628;28;20030;-82
2023/03/29 05:36:15;;;;;;;13.13;5.97;;;;;;;5.64;64.79;101045.75;4989162;28;20058;-82
2023/03/29 05:38:43;;;;;;;13.20;6.47;;;;;;;5.70;64.66;101056.09;4990403;28;20523;-84
2023/03/29 05:41:10;;;;;;;17.00;5.88;;;;;;;5.79;64.48;101060.91;4989590;28;20064;-87
2023/03/29 05:43:35;;;;;;;12.50;6.05;;;;;;;5.88;64.99;101049.78;4990492;28;20044;-88
2023/03/29 05:46:01;;;;;;;10.68;5.40;;;;;;;6.10;64.85;101065.47;4997338;28;20125;-88
2023/03/29 05:48:27;;;;;;;22.02;5.47;;;;;;;6.07;63.18;101062.09;4989965;28;20376;-88
2023/03/29 05:50:55;;;;;;;19.35;6.32;;;;;;;6.07;62.47;101070.97;4981075;28;20029;-81
2023/03/29 05:53:22;;;;;;;9.52;5.28;;;;;;;5.97;62.17;101067.09;4989655;28;20035;-84
2023/03/29 05:55:49;;;;;;;10.77;4.00;;;;;;;6.01;61.95;101071.31;4989294;28;20033;-82
2023/03/29 05:58:16;;;;;;;9.60;4.95;;;;;;;5.75;62.02;101066.53;4941660;28;20046;-83
2023/03/29 06:00:42;;;;;;;8.27;5.18;;;;;;;5.61;62.19;101059.25;4996729;28;20093;-89
2023/03/29 06:03:17;;;;;;;15.70;5.50;;;;;;;5.73;61.77;101081.75;4996269;28;20058;-87
2023/03/29 06:05:47;;;;;;;11.07;5.22;;;;;;;5.69;61.72;101074.88;5006527;28;20038;-82
2023/03/29 06:08:13;;;;;;;15.70;5.03;;;;;;;5.54;61.98;101086.34;4971674;28;20057;-82
2023/03/29 06:10:39;;;;;;;12.13;5.68;;;;;;;5.60;62.58;101075.31;4991599;28;20038;-81
2023/03/29 06:13:06;;;;;;;11.38;4.97;;;;;;;5.64;62.75;101079.56;4988898;28;20026;-80
2023/03/29 06:15:31;;;;;;;14.38;6.00;;;;;;;5.68;62.31;101073.13;4990006;28;20030;-85
2023/03/29 06:17:58;;;;;;;7.57;4.82;;;;;;;5.71;62.57;101067.63;4988919;28;20034;-80
2023/03/29 06:20:24;;;;;;;16.48;5.55;;;;;;;5.88;62.02;101094.28;4988472;28;20038;-81
2023/03/29 06:22:49;;;;;;;15.60;5.45;;;;;;;5.97;61.08;101093.78;4937403;28;20779;-80
2023/03/29 06:25:16;;;;;;;14.55;4.60;;;;;;;6.00;61.06;101091.81;4990309;28;20033;-80
2023/03/29 06:27:41;;;;;;;9.57;4.35;;;;;;;6.17;60.51;101092.69;4988147;28;20034;-82
2023/03/29 06:30:07;;;;;;;5.28;4.10;;;;;;;6.15;60.27;101099.91;4988734;28;20088;-81
2023/03/29 06:32:34;;;;;;;14.52;4.55;;;;;;;6.14;60.13;101099.06;4988565;28;20085;-81
2023/03/29 06:34:59;;;;;;;8.60;4.30;;;;;;;6.30;59.41;101094.56;4988857;28;20456;-79
2023/03/29 06:37:25;;;;;;;9.20;4.28;;;;;;;6.42;59.17;101099.22;4988660;28;20026;-82
2023/03/29 06:39:52;;;;;;;18.17;5.30;;;;;;;6.65;58.86;101102.41;4989550;28;20093;-81
2023/03/29 06:42:19;;;;;;;12.50;4.93;;;;;;;6.76;58.78;101095.47;4988321;28;20022;-80
2023/03/29 06:44:44;;;;;;;10.55;5.15;;;;;;;6.87;58.25;101113.56;4988578;28;20068;-81
2023/03/29 06:47:10;;;;;;;13.32;4.97;;;;;;;6.98;57.50;101103.09;4988569;28;20763;-81
2023/03/29 06:49:35;;;;;;;22.75;5.72;;;;;;;7.05;57.15;101110.69;4988807;28;20474;-80
2023/03/29 06:52:00;;;;;;;9.60;4.43;;;;;;;7.22;55.99;101111.47;4990677;28;20029;-85
2023/03/29 06:54:26;;;;;;;17.13;4.28;;;;;;;7.20;55.47;101108.91;4990076;28;20033;-83
2023/03/29 06:56:52;;;;;;;22.48;4.95;;;;;;;7.33;55.67;101109.91;4991228;28;20100;-85
2023/03/29 06:59:17;;;;;;;6.13;4.10;;;;;;;7.48;54.88;101103.63;4991533;28;20038;-82
2023/03/29 07:01:43;;;;;;;17.15;4.22;;;;;;;7.57;55.18;101097.69;5000725;28;20042;-81
2023/03/29 07:04:09;;;;;;;11.63;5.05;;;;;;;7.60;54.76;101105.53;5005269;28;20041;-82
2023/03/29 07:06:37;;;;;;;14.15;6.50;;;;;;;7.48;55.19;101086.69;5008135;28;20127;-82
2023/03/29 07:09:05;;;;;;;15.52;5.15;;;;;;;7.79;54.57;101109.75;4995725;28;20026;-85
2023/03/29 07:11:35;;;;;;;16.27;5.95;;;;;;;7.80;54.61;101095.44;4997212;28;20464;-80
2023/03/29 07:14:02;;;;;;;10.82;5.90;;;;;;;7.82;53.48;101112.25;4995983;28;20022;-83
2023/03/29 07:16:28;;;;;;;13.57;5.75;;;;;;;7.98;53.38;101121.88;4992090;28;20077;-82
2023/03/29 07:18:54;;;;;;;17.58;4.93;;;;;;;8.03;52.98;101114.44;4992138;28;20045;-79
2023/03/29 07:21:19;;;;;;;7.65;4.18;;;;;;;8.08;53.32;101119.50;4999199;28;20209;-85
2023/03/29 07:23:45;;;;;;;11.63;4.80;;;;;;;8.18;53.20;101113.47;4992199;28;20479;-83
2023/03/29 07:26:11;;;;;;;9.90;4.22;;;;;;;8.27;51.59;101119.19;4991493;28;20054;-88
2023/03/29 07:28:38;;;;;;;17.67;5.47;;;;;;;8.47;52.02;101126.84;4990974;28;20113;-84
2023/03/29 07:31:09;;;;;;;18.80;4.70;;;;;;;8.63;51.10;101139.16;4993310;28;20026;-85
2023/03/29 07:33:35;;;;;;;9.00;4.27;;;;;;;8.64;49.85;101130.16;5000380;28;20061;-84
2023/03/29 07:36:02;;;;;;;11.70;4.80;;;;;;;8.60;49.86;101122.41;4991033;28;20046;-85
2023/03/29 07:38:28;;;;;;;18.65;4.82;;;;;;;8.73;49.45;101129.56;4991393;28;20069;-86
2023/03/29 07:40:53;;;;;;;11.05;4.88;;;;;;;8.83;48.77;101124.44;4973571;28;20124;-86
2023/03/29 07:43:20;;;;;;;9.52;4.20;;;;;;;8.50;49.70;101132.84;4991417;28;20105;-85
2023/03/29 07:45:46;;;;;;;7.38;3.97;;;;;;;8.45;50.75;101144.84;4991264;28;20030;-84
2023/03/29 07:48:12;;;;;;;9.15;4.13;;;;;;;8.42;51.11;101128.97;4990557;28;20425;-84
2023/03/29 07:50:37;;;;;;;10.75;4.75;;;;;;;8.54;50.86;101120.97;4973327;28;20034;-82
2023/03/29 07:53:03;;;;;;;7.75;4.07;;;;;;;8.66;49.24;101138.94;4991220;28;20062;-85
2023/03/29 07:55:29;;;;;;;6.55;3.92;;;;;;;8.74;48.97;101135.78;4991699;28;20453;-86
2023/03/29 07:57:55;;;;;;;8.73;4.55;;;;;;;8.85;49.24;101133.25;4992140;28;20060;-84
2023/03/29 08:00:22;;;;;;;10.07;4.13;;;;;;;8.99;49.50;101135.03;5003449;28;20026;-84
2023/03/29 08:02:51;;;;;;;12.23;4.32;;;;;;;9.00;49.29;101116.13;5009675;28;20041;-84
2023/03/29 08:05:18;;;;;;;7.65;3.97;;;;;;;9.29;49.04;101133.78;5002896;28;20066;-87
2023/03/29 08:07:44;;;;;;;16.63;4.85;;;;;;;9.47;48.20;101126.31;4993641;28;20033;-84
2023/03/29 08:10:14;;;;;;;4.13;3.20;;;;;;;9.68;47.54;101130.22;4976781;28;20033;-85
2023/03/29 08:12:40;;;;;;;8.70;3.53;;;;;;;9.65;46.61;101124.19;4993536;28;20034;-86
2023/03/29 08:15:07;;;;;;;32.42;6.25;;;;;;;9.78;47.17;101130.44;4992358;28;20080;-86
2023/03/29 08:17:34;;;;;;;12.07;4.15;;;;;;;9.82;46.61;101130.09;4992321;28;20018;-86
2023/03/29 08:20:00;;;;;;;11.43;3.25;;;;;;;9.80;45.30;101123.97;4948634;28;20134;-87
2023/03/29 08:22:25;;;;;;;8.73;3.63;;;;;;;9.70;45.55;101117.53;4999482;28;20722;-85
2023/03/29 08:24:51;;;;;;;10.32;4.60;;;;;;;9.92;45.61;101132.13;5001070;28;20048;-86
2023/03/29 08:27:17;;;;;;;8.15;4.50;;;;;;;9.87;45.18;101136.97;4999866;28;20050;-86
2023/03/29 08:29:42;;;;;;;5.22;3.75;;;;;;;9.96;44.63;101130.97;5000943;28;20030;-87
2023/03/29 08:32:08;;;;;;;7.15;4.05;;;;;;;9.88;43.73;101130.66;5002612;28;20084;-86
2023/03/29 08:34:34;;;;;;;9.85;4.15;;;;;;;9.99;44.17;101120.00;4983596;28;20035;-85
2023/03/29 08:37:00;;;;;;;7.03;4.28;;;;;;;9.89;43.50;101122.47;5000780;28;20419;-85
2023/03/29 08:39:26;;;;;;;8.25;3.70;;;;;;;10.04;43.77;101125.88;5001451;28;20397;-83
2023/03/29 08:41:56;;;;;;;24.33;5.15;;;;;;;10.11;43.57;101124.47;4997869;28;20115;-85
2023/03/29 08:44:42;;;;;;;11.48;3.42;;;;;;;10.12;42.48;101124.34;4993389;28;20054;-87
2023/03/29 08:47:07;;;;;;;6.55;3.38;;;;;;;9.94;42.43;101116.78;4993969;28;20044;-84
2023/03/29 08:49:36;;;;;;;7.88;3.38;;;;;;;10.02;42.45;101120.63;4991603;28;20449;-84
2023/03/29 08:52:10;;;;;;;3.92;3.33;;;;;;;10.09;41.93;101124.59;4974997;28;20057;-86
2023/03/29 08:54:42;;;;;;;5.57;3.30;;;;;;;10.01;42.00;101120.72;4992214;28;20029;-84
2023/03/29 08:57:44;;;;;;;9.20;3.97;;;;;;;10.11;41.63;101119.97;4993002;28;20556;-85
2023/03/29 09:00:38;;;;;;;10.88;4.10;;;;;;;10.11;42.28;101127.19;4938791;29;20044;-82
2023/03/29 09:03:24;;;;;;;16.20;5.45;;;;;;;10.25;42.38;101110.94;4949027;29;20048;-86
2023/03/29 09:05:57;;;;;;;19.73;4.00;;;;;;;10.36;41.99;101102.97;4931231;29;20043;-87
2023/03/29 09:08:23;;;;;;;13.07;4.28;;;;;;;10.34;41.50;101115.66;4930430;29;20047;-85
2023/03/29 09:11:16;;;;;;;24.45;5.28;;;;;;;10.62;41.91;101128.78;4930475;29;20043;-86
2023/03/29 09:14:07;;;;;;;10.40;4.75;;;;;;;10.67;41.62;101112.34;4930893;29;20047;-86
2023/03/29 09:16:45;;;;;;;5.82;3.83;;;;;;;10.58;41.58;101121.91;4930765;29;20031;-85
2023/03/29 09:19:29;;;;;;;13.30;4.07;;;;;;;10.26;41.72;101128.78;4931459;29;20047;-85
2023/03/29 09:22:21;;;;;;;10.82;3.65;;;;;;;10.21;41.36;101115.66;4930233;29;20052;-86
2023/03/29 09:25:01;;;;;;;10.75;4.78;;;;;;;10.10;41.98;101122.75;4929999;29;20039;-85
2023/03/29 09:27:49;;;;;;;8.93;3.67;;;;;;;10.33;41.61;101130.09;4930217;29;20606;-85
2023/03/29 09:30:30;;;;;;;51.67;6.25;;;;;;;10.07;41.44;101125.66;4931558;29;20471;-85
2023/03/29 09:33:04;;;;;;;20.17;4.18;;;;;;;9.97;41.82;101103.13;4930811;29;20032;-86
2023/03/29 09:35:36;;;;;;;6.15;4.18;;;;;;;10.21;41.43;101123.72;4990662;28;20022;-85
2023/03/29 09:38:03;;;;;;;12.73;4.35;;;;;;;10.11;41.72;101119.97;4990600;28;20505;-88
2023/03/29 09:40:37;;;;;;;15.45;3.97;;;;;;;9.99;41.93;101128.03;4989866;28;20490;-81
2023/03/29 09:43:06;;;;;;;6.65;3.50;;;;;;;10.01;42.40;101118.03;5011791;28;20026;-84
2023/03/29 09:45:35;;;;;;;8.98;4.13;;;;;;;9.97;42.83;101111.19;5008631;28;20038;-82
2023/03/29 09:48:13;;;;;;;16.52;5.30;;;;;;;9.92;43.05;101118.69;5011974;28;20033;-86
2023/03/29 09:50:47;;;;;;;22.88;5.68;;;;;;;9.99;44.33;101128.03;4992629;28;20042;-84
2023/03/29 09:53:17;;;;;;;22.15;5.80;;;;;;;10.02;45.14;101128.69;4991836;28;20030;-85
2023/03/29 09:55:45;;;;;;;24.48;5.55;;;;;;;10.21;45.29;101128.28;4998241;28;20033;-81
2023/03/29 09:58:17;;;;;;;15.10;5.22;;;;;;;10.25;44.13;101129.75;5006309;28;20078;-87
2023/03/29 10:00:43;;;;;;;8.07;4.35;;;;;;;10.04;43.64;101126.75;5006691;28;20117;-85
2023/03/29 10:03:20;;;;;;;6.85;3.72;;;;;;;9.89;43.91;101130.53;4991071;28;20045;-91
2023/03/29 10:05:48;;;;;;;18.25;5.55;;;;;;;9.82;44.65;101135.47;4989338;28;20026;-86
2023/03/29 10:08:41;;;;;;;15.13;4.63;;;;;;;9.61;43.33;101115.47;4989568;28;20334;-87
2023/03/29 10:11:13;;;;;;;14.52;3.45;;;;;;;9.78;44.52;101125.06;4989958;28;20022;-84
2023/03/29 10:13:43;;;;;;;;;;;;;;;9.89;43.89;101125.16;4991899;28;20477;-85
2023/03/29 10:16:19;;;;;;;27.95;5.15;;;;;;;10.13;44.28;101126.13;4989551;28;19914;-85
2023/03/29 10:18:46;;;;;;;10.38;4.82;;;;;;;10.24;42.79;101118.13;4989523;28;20069;-89
2023/03/29 10:21:19;;;;;;;8.15;3.70;;;;;;;10.34;41.59;101119.19;4991515;28;20061;-86
2023/03/29 10:23:44;;;;;;;6.68;3.58;;;;;;;10.13;39.23;101126.13;4990267;28;20050;-86
2023/03/29 10:26:22;;;;;;;6.13;3.30;;;;;;;9.96;38.70;101112.16;4989684;28;20049;-86
2023/03/29 10:28:52;;;;;;;32.45;4.80;;;;;;;10.06;38.98;101107.84;4989473;28;20038;-87
2023/03/29 10:31:21;;;;;;;5.10;3.50;;;;;;;10.15;38.73;101118.78;4991027;28;20113;-86
2023/03/29 10:33:56;;;;;;;7.22;3.20;;;;;;;10.17;38.75;101116.88;4992751;28;20109;-86
2023/03/29 10:36:25;;;;;;;13.15;3.33;;;;;;;10.24;38.82;101114.63;4993925;28;20058;-89
2023/03/29 10:38:53;;;;;;;7.50;5.10;;;;;;;10.41;39.18;101125.00;4992923;28;20095;-88
2023/03/29 10:41:21;;;;;;;15.95;5.30;;;;;;;10.36;38.72;101124.47;4994542;28;20037;-90
2023/03/29 10:43:49;;;;;;;10.32;5.22;;;;;;;10.49;39.10;101125.28;5002705;28;20026;-85
2023/03/29 10:46:26;;;;;;;14.38;6.90;;;;;;;10.40;39.43;101122.44;5015675;28;20054;-87
2023/03/29 10:48:56;;;;;;;10.02;5.18;;;;;;;10.44;39.67;101119.41;5018162;28;20029;-85
2023/03/29 10:51:23;;;;;;;10.55;3.95;;;;;;;10.38;40.59;101114.47;5000364;28;20069;-84
2023/03/29 10:53:49;;;;;;;9.18;3.42;;;;;;;10.31;40.29;101113.19;5016895;28;20034;-88
2023/03/29 10:56:37;;;;;;;14.63;4.53;;;;;;;10.50;40.21;101118.94;5017546;28;20218;-83
2023/03/29 10:59:03;;;;;;;10.30;3.67;;;;;;;10.55;40.55;101106.00;5005266;28;20522;-90
2023/03/29 11:01:53;;;;;;;5.97;3.13;;;;;;;10.81;39.50;101099.56;4981826;28;20041;-87
2023/03/29 11:04:58;;;;;;;7.97;3.33;;;;;;;11.02;38.94;101093.53;4994805;28;20089;-85
2023/03/29 11:07:42;;;;;;;6.15;2.70;;;;;;;11.20;38.77;101089.44;4938134;29;20047;-89
2023/03/29 11:10:29;;;;;;;8.57;4.00;;;;;;;11.27;37.54;101090.69;4947343;29;20076;-87
2023/03/29 11:13:24;;;;;;;7.78;4.55;;;;;;;11.15;37.58;101087.09;4906516;29;20040;-88
2023/03/29 11:15:55;;;;;;;24.23;4.38;;;;;;;10.71;37.27;101117.34;4895937;29;20096;-92
2023/03/29 11:18:58;;;;;;;44.25;5.22;;;;;;;10.41;37.81;101111.53;4895155;29;20044;-83
2023/03/29 11:21:41;;;;;;;6.03;2.95;;;;;;;10.18;38.06;101112.38;4896154;29;20036;-89
2023/03/29 11:24:19;;;;;;;8.98;2.42;;;;;;;9.74;39.04;101116.34;4896908;29;20120;-90
2023/03/29 11:27:22;;;;;;;5.88;2.65;;;;;;;9.76;39.20;101121.59;4894184;29;20559;-90
2023/03/29 11:29:59;;;;;;;;;;;;;;;9.70;38.91;101112.16;4898265;29;20417;-80
2023/03/29 11:32:45;;;;;;;16.73;4.75;;;;;;;9.56;38.90;101119.44;4895492;29;19912;-81
2023/03/29 11:35:23;;;;;;;19.90;4.80;;;;;;;9.74;39.00;101121.72;4893218;29;20048;-82
2023/03/29 11:37:54;;;;;;;9.77;3.58;;;;;;;9.96;38.78;101104.09;4904631;29;20065;-90
2023/03/29 11:40:35;;;;;;;21.70;2.78;;;;;;;10.09;36.15;101105.75;4900011;29;20041;-88
2023/03/29 11:43:08;;;;;;;14.45;3.13;;;;;;;10.22;35.80;101070.84;4904632;29;20476;-87
2023/03/29 11:45:48;;;;;;;17.48;4.72;;;;;;;10.70;34.32;101087.91;4922555;29;20086;-84